createdAt,value
2017-11-10T00:00:59.901Z,46.98
2017-11-10T00:02:09.217Z,47.08
2017-11-10T00:03:18.525Z,46.98
2017-11-10T00:04:27.502Z,46.98
2017-11-10T00:05:37.146Z,47.08
2017-11-10T00:06:46.451Z,46.98
2017-11-10T00:07:56.409Z,46.88
2017-11-10T00:09:05.717Z,46.98
2017-11-10T00:10:15.691Z,46.98
2017-11-10T00:11:25.333Z,46.98
2017-11-10T00:12:34.638Z,46.98
2017-11-10T00:13:44.602Z,46.98
2017-11-10T00:14:54.253Z,47.08
2017-11-10T00:16:03.595Z,46.98
2017-11-10T00:17:13.230Z,46.98
2017-11-10T00:18:21.874Z,46.98
2017-11-10T00:19:31.853Z,47.08
2017-11-10T00:20:41.172Z,46.98
2017-11-10T00:21:50.806Z,47.17
2017-11-10T00:22:59.786Z,46.98
2017-11-10T00:24:08.756Z,46.98
2017-11-10T00:25:17.739Z,46.88
2017-11-10T00:26:27.374Z,46.98
2017-11-10T00:27:36.353Z,46.98
2017-11-10T00:28:45.698Z,46.98
2017-11-10T00:29:54.675Z,46.98
2017-11-10T00:31:04.332Z,46.98
2017-11-10T00:32:13.633Z,46.98
2017-11-10T00:33:22.931Z,46.98
2017-11-10T00:34:31.980Z,47.08
2017-11-10T00:35:40.627Z,46.98
2017-11-10T00:36:49.600Z,47.17
2017-11-10T00:37:58.579Z,46.98
2017-11-10T00:39:07.918Z,46.98
2017-11-10T00:40:17.578Z,46.98
2017-11-10T00:41:27.551Z,46.98
2017-11-10T00:42:37.200Z,47.08
2017-11-10T00:43:46.839Z,46.98
2017-11-10T00:44:56.158Z,46.98
2017-11-10T00:46:05.462Z,47
2017-11-10T00:47:14.764Z,47.08
2017-11-10T00:48:24.412Z,46.98
2017-11-10T00:49:33.386Z,47.08
2017-11-10T00:50:42.692Z,46.98
2017-11-10T00:51:51.343Z,46.98
2017-11-10T00:53:00.663Z,46.98
2017-11-10T00:54:09.657Z,46.98
2017-11-10T00:55:19.629Z,46.98
2017-11-10T00:56:29.286Z,46.98
2017-11-10T00:57:38.665Z,46.88
2017-11-10T00:58:47.647Z,47.17
2017-11-10T00:59:57.293Z,46.88
2017-11-10T01:01:06.297Z,46.88
2017-11-10T01:02:15.284Z,47.08
2017-11-10T01:03:25.248Z,46.98
2017-11-10T01:04:34.546Z,46.88
2017-11-10T01:05:43.869Z,47.08
2017-11-10T01:06:52.843Z,46.88
2017-11-10T01:08:02.470Z,46.98
2017-11-10T01:09:11.771Z,47.08
2017-11-10T01:10:20.769Z,46.98
2017-11-10T01:11:30.757Z,46.98
2017-11-10T01:12:39.727Z,47.08
2017-11-10T01:13:49.243Z,47.08
2017-11-10T01:14:58.231Z,46.98
2017-11-10T01:16:07.544Z,47.08
2017-11-10T01:17:16.186Z,46.98
2017-11-10T01:18:25.833Z,47.08
2017-11-10T01:19:34.835Z,46.98
2017-11-10T01:20:43.810Z,46.98
2017-11-10T01:21:52.453Z,46.98
2017-11-10T01:23:01.760Z,47.17
2017-11-10T01:24:11.388Z,47.08
2017-11-10T01:25:20.053Z,46.98
2017-11-10T01:26:30.035Z,47.17
2017-11-10T01:27:39.008Z,46.98
2017-11-10T01:28:48.642Z,47.08
2017-11-10T01:29:57.947Z,47.08
2017-11-10T01:31:06.932Z,46.98
2017-11-10T01:32:16.562Z,47
2017-11-10T01:33:25.203Z,46.98
2017-11-10T01:34:35.166Z,46.98
2017-11-10T01:35:44.806Z,46.98
2017-11-10T01:36:55.117Z,46.98
2017-11-10T01:38:04.750Z,46.98
2017-11-10T01:39:14.058Z,47.08
2017-11-10T01:40:23.068Z,47.08
2017-11-10T01:41:32.375Z,46.98
2017-11-10T01:42:41.373Z,46.98
2017-11-10T01:43:50.672Z,46.98
2017-11-10T01:45:00.629Z,46.88
2017-11-10T01:46:09.607Z,46.88
2017-11-10T01:47:19.238Z,46.88
2017-11-10T01:48:28.874Z,46.98
2017-11-10T01:49:38.190Z,46.88
2017-11-10T01:50:47.174Z,47.08
2017-11-10T01:51:55.829Z,47.08
2017-11-10T01:53:05.480Z,47.08
2017-11-10T01:54:15.125Z,47.08
2017-11-10T01:55:24.133Z,47.08
2017-11-10T01:56:33.446Z,46.98
2017-11-10T01:57:43.871Z,47.08
2017-11-10T01:58:53.180Z,46.98
2017-11-10T02:00:02.562Z,46.98
2017-11-10T02:01:11.907Z,46.98
2017-11-10T02:02:21.205Z,46.98
2017-11-10T02:03:30.530Z,47.17
2017-11-10T02:04:39.520Z,46.98
2017-11-10T02:05:48.175Z,46.98
2017-11-10T02:06:57.808Z,46.98
2017-11-10T02:08:07.438Z,47.08
2017-11-10T02:09:17.078Z,46.98
2017-11-10T02:10:26.706Z,47.08
2017-11-10T02:11:36.401Z,46.98
2017-11-10T02:12:46.029Z,47.17
2017-11-10T02:13:55.704Z,47.08
2017-11-10T02:15:04.690Z,46.98
2017-11-10T02:16:13.675Z,46.98
2017-11-10T02:17:22.977Z,47.08
2017-11-10T02:18:32.929Z,46.98
2017-11-10T02:19:41.902Z,47.08
2017-11-10T02:20:50.542Z,47.17
2017-11-10T02:22:00.182Z,46.98
2017-11-10T02:23:09.488Z,46.98
2017-11-10T02:24:19.119Z,46.98
2017-11-10T02:25:28.105Z,47.17
2017-11-10T02:26:37.405Z,46.98
2017-11-10T02:27:46.386Z,46.98
2017-11-10T02:28:55.689Z,46.98
2017-11-10T02:30:05.337Z,47.08
2017-11-10T02:31:14.981Z,46.98
2017-11-10T02:32:23.625Z,47.17
2017-11-10T02:33:32.601Z,47.08
2017-11-10T02:34:41.942Z,46.98
2017-11-10T02:35:51.247Z,47.08
2017-11-10T02:37:00.229Z,46.98
2017-11-10T02:38:10.221Z,47.08
2017-11-10T02:39:19.580Z,47.17
2017-11-10T02:40:29.216Z,46.98
2017-11-10T02:41:38.520Z,46.98
2017-11-10T02:42:47.848Z,47.17
2017-11-10T02:43:57.474Z,47.08
2017-11-10T02:45:06.133Z,47.17
2017-11-10T02:46:15.785Z,47.08
2017-11-10T02:47:24.772Z,47.17
2017-11-10T02:48:34.082Z,47.17
2017-11-10T02:49:43.390Z,47.27
2017-11-10T02:50:52.703Z,47.17
2017-11-10T02:52:02.029Z,47.08
2017-11-10T02:53:11.332Z,47.08
2017-11-10T02:54:20.329Z,47.17
2017-11-10T02:55:29.647Z,47.17
2017-11-10T02:56:38.977Z,47.08
2017-11-10T02:57:48.636Z,47.17
2017-11-10T02:58:57.956Z,47.17
2017-11-10T03:00:07.658Z,47.08
2017-11-10T03:01:16.639Z,47.08
2017-11-10T03:02:25.956Z,47.17
2017-11-10T03:03:35.257Z,47.17
2017-11-10T03:04:43.912Z,47.17
2017-11-10T03:05:54.219Z,47.27
2017-11-10T03:07:04.184Z,47.08
2017-11-10T03:08:13.507Z,47.08
2017-11-10T03:09:22.459Z,47.17
2017-11-10T03:10:31.797Z,47.08
2017-11-10T03:11:41.125Z,47.08
2017-11-10T03:12:50.455Z,47.08
2017-11-10T03:13:59.761Z,46.98
2017-11-10T03:15:09.079Z,47.08
2017-11-10T03:16:18.044Z,47.08
2017-11-10T03:17:27.023Z,47.08
2017-11-10T03:18:35.995Z,46.98
2017-11-10T03:19:45.627Z,46.98
2017-11-10T03:20:55.283Z,47.08
2017-11-10T03:22:04.923Z,46.98
2017-11-10T03:23:14.229Z,47.08
2017-11-10T03:24:23.539Z,47.08
2017-11-10T03:25:32.522Z,47.08
2017-11-10T03:26:41.488Z,47.27
2017-11-10T03:27:50.810Z,47.08
2017-11-10T03:29:00.124Z,47.36
2017-11-10T03:30:09.430Z,47.08
2017-11-10T03:31:19.398Z,46.88
2017-11-10T03:32:28.712Z,47.36
2017-11-10T03:33:38.670Z,47.27
2017-11-10T03:34:48.313Z,47.27
2017-11-10T03:35:57.950Z,47.08
2017-11-10T03:37:08.293Z,47.36
2017-11-10T03:38:17.931Z,47.36
2017-11-10T03:39:27.226Z,47.36
2017-11-10T03:40:36.534Z,47.36
2017-11-10T03:41:45.508Z,47.36
2017-11-10T03:42:55.138Z,46.78
2017-11-10T03:44:04.785Z,47.27
2017-11-10T03:45:14.444Z,46.5
2017-11-10T03:46:24.407Z,47.27
2017-11-10T03:47:34.062Z,46.59
2017-11-10T03:48:43.377Z,47.17
2017-11-10T03:49:52.686Z,46.5
2017-11-10T03:51:01.722Z,46.78
2017-11-10T03:52:11.346Z,46.5
2017-11-10T03:53:20.974Z,46.5
2017-11-10T03:54:29.952Z,46.5
2017-11-10T03:55:38.595Z,46.69
2017-11-10T03:56:47.918Z,46.4
2017-11-10T03:57:57.232Z,46.78
2017-11-10T03:59:07.209Z,46.78
2017-11-10T04:00:16.185Z,46.69
2017-11-10T04:01:25.503Z,46.4
2017-11-10T04:02:34.820Z,46.5
2017-11-10T04:03:44.451Z,47.17
2017-11-10T04:04:54.072Z,46.59
2017-11-10T04:06:03.048Z,46.69
2017-11-10T04:07:12.032Z,46.4
2017-11-10T04:08:21.385Z,46.78
2017-11-10T04:09:31.018Z,46.4
2017-11-10T04:10:39.660Z,46.69
2017-11-10T04:11:48.989Z,46.69
2017-11-10T04:12:58.608Z,46.4
2017-11-10T04:14:07.899Z,46.4
2017-11-10T04:15:16.877Z,46.59
2017-11-10T04:16:25.882Z,46.69
2017-11-10T04:17:35.194Z,46.69
2017-11-10T04:18:44.174Z,46.59
2017-11-10T04:19:53.202Z,46.69
2017-11-10T04:21:02.839Z,46.59
2017-11-10T04:22:12.137Z,46.69
2017-11-10T04:23:21.108Z,46.69
2017-11-10T04:24:30.079Z,46.69
2017-11-10T04:25:39.392Z,46.59
2017-11-10T04:26:48.709Z,46.69
2017-11-10T04:27:58.030Z,46.78
2017-11-10T04:29:07.655Z,46.69
2017-11-10T04:30:16.952Z,46.31
2017-11-10T04:31:26.246Z,46.31
2017-11-10T04:32:35.887Z,46.59
2017-11-10T04:33:45.839Z,46.5
2017-11-10T04:34:54.487Z,46.59
2017-11-10T04:36:03.773Z,46.31
2017-11-10T04:37:12.766Z,46.69
2017-11-10T04:38:22.405Z,46.31
2017-11-10T04:39:31.704Z,46.5
2017-11-10T04:40:40.341Z,46.59
2017-11-10T04:41:49.635Z,46.59
2017-11-10T04:42:58.963Z,46.69
2017-11-10T04:44:07.954Z,46.5
2017-11-10T04:45:17.904Z,46.31
2017-11-10T04:46:26.896Z,46.5
2017-11-10T04:47:35.878Z,46.59
2017-11-10T04:48:45.528Z,46.5
2017-11-10T04:49:55.165Z,46.59
2017-11-10T04:51:05.182Z,46.69
2017-11-10T04:52:14.163Z,46.5
2017-11-10T04:53:23.127Z,46.5
2017-11-10T04:54:32.427Z,46.59
2017-11-10T04:55:41.731Z,46.59
2017-11-10T04:56:51.036Z,46.5
2017-11-10T04:58:00.339Z,46.5
2017-11-10T04:59:09.649Z,46.31
2017-11-10T05:00:18.965Z,46.69
2017-11-10T05:01:28.927Z,46.69
2017-11-10T05:02:38.235Z,46.59
2017-11-10T05:03:48.429Z,46.59
2017-11-10T05:04:57.398Z,46.59
2017-11-10T05:06:07.372Z,46.69
2017-11-10T05:07:17.008Z,46.59
2017-11-10T05:08:25.996Z,46.59
2017-11-10T05:09:35.304Z,46.59
2017-11-10T05:10:44.277Z,46.59
2017-11-10T05:11:53.613Z,46.5
2017-11-10T05:13:02.590Z,46.59
2017-11-10T05:14:12.223Z,46.59
2017-11-10T05:15:21.200Z,46.59
2017-11-10T05:16:30.846Z,46.59
2017-11-10T05:17:40.177Z,46.59
2017-11-10T05:18:48.833Z,46.69
2017-11-10T05:19:58.342Z,46.59
2017-11-10T05:21:07.653Z,46.59
2017-11-10T05:22:17.293Z,46.78
2017-11-10T05:23:26.265Z,46.59
2017-11-10T05:24:35.899Z,46.59
2017-11-10T05:25:45.882Z,46.69
2017-11-10T05:26:55.522Z,46.59
2017-11-10T05:28:04.495Z,46.59
2017-11-10T05:29:13.483Z,46.59
2017-11-10T05:30:22.123Z,46.59
2017-11-10T05:31:31.773Z,46.69
2017-11-10T05:32:41.406Z,46.59
2017-11-10T05:33:51.042Z,46.69
2017-11-10T05:35:00.684Z,46.5
2017-11-10T05:36:10.649Z,46.69
2017-11-10T05:37:19.949Z,46.5
2017-11-10T05:38:29.600Z,46.69
2017-11-10T05:39:39.251Z,46.5
2017-11-10T05:40:48.887Z,46.4
2017-11-10T05:41:58.518Z,46.69
2017-11-10T05:43:07.815Z,46.4
2017-11-10T05:44:17.805Z,46.5
2017-11-10T05:45:27.106Z,46.5
2017-11-10T05:46:36.442Z,46.69
2017-11-10T05:47:45.082Z,46.5
2017-11-10T05:48:54.068Z,46.59
2017-11-10T05:50:03.713Z,46.59
2017-11-10T05:51:13.346Z,46.59
2017-11-10T05:52:22.977Z,46.69
2017-11-10T05:53:32.286Z,46.31
2017-11-10T05:54:41.289Z,46.5
2017-11-10T05:55:50.590Z,46.5
2017-11-10T05:57:00.218Z,46.5
2017-11-10T05:58:09.520Z,46.4
2017-11-10T05:59:19.148Z,46.4
2017-11-10T06:00:28.448Z,46.5
2017-11-10T06:01:38.770Z,46.4
2017-11-10T06:02:48.758Z,46.5
2017-11-10T06:03:58.414Z,46.4
2017-11-10T06:05:08.051Z,46.21
2017-11-10T06:06:17.357Z,46.31
2017-11-10T06:07:26.347Z,46.31
2017-11-10T06:08:35.323Z,46.52
2017-11-10T06:09:44.698Z,46.14
2017-11-10T06:10:53.970Z,46.33
2017-11-10T06:12:03.618Z,45.84
2017-11-10T06:13:12.592Z,45.84
2017-11-10T06:14:22.235Z,45.94
2017-11-10T06:15:31.545Z,45.75
2017-11-10T06:16:40.528Z,45.65
2017-11-10T06:17:49.509Z,45.68
2017-11-10T06:18:59.796Z,45.29
2017-11-10T06:20:09.425Z,45.39
2017-11-10T06:21:18.065Z,45
2017-11-10T06:22:26.746Z,44.81
2017-11-10T06:23:36.489Z,44.9
2017-11-10T06:24:46.542Z,45
2017-11-10T06:25:55.628Z,44.35
2017-11-10T06:27:05.011Z,44.64
2017-11-10T06:28:14.650Z,44.93
2017-11-10T06:29:24.611Z,44.93
2017-11-10T06:30:33.958Z,44.15
2017-11-10T06:31:43.291Z,44.15
2017-11-10T06:32:52.294Z,44.08
2017-11-10T06:34:01.602Z,43.98
2017-11-10T06:35:10.633Z,44.08
2017-11-10T06:36:19.957Z,43.89
2017-11-10T06:37:29.313Z,43.98
2017-11-10T06:38:39.285Z,43.79
2017-11-10T06:39:47.951Z,43.72
2017-11-10T06:40:56.950Z,43.81
2017-11-10T06:42:06.272Z,43.52
2017-11-10T06:43:14.939Z,43.52
2017-11-10T06:44:24.253Z,43.24
2017-11-10T06:45:33.579Z,43.24
2017-11-10T06:46:42.560Z,43.04
2017-11-10T06:47:51.884Z,42.94
2017-11-10T06:49:01.195Z,43.14
2017-11-10T06:50:10.538Z,43.16
2017-11-10T06:51:19.632Z,42.97
2017-11-10T06:52:28.732Z,43.06
2017-11-10T06:53:38.456Z,43.16
2017-11-10T06:54:47.928Z,43.06
2017-11-10T06:55:56.954Z,42.87
2017-11-10T06:57:06.269Z,43.06
2017-11-10T06:58:15.245Z,43.06
2017-11-10T06:59:24.869Z,43.35
2017-11-10T07:00:33.837Z,43.26
2017-11-10T07:01:43.517Z,43.64
2017-11-10T07:02:52.163Z,43.62
2017-11-10T07:04:01.468Z,43.72
2017-11-10T07:05:10.442Z,43.62
2017-11-10T07:06:20.108Z,43.52
2017-11-10T07:07:29.458Z,44.1
2017-11-10T07:08:38.478Z,43.81
2017-11-10T07:09:47.472Z,43.81
2017-11-10T07:10:57.147Z,44.2
2017-11-10T07:12:06.499Z,44.2
2017-11-10T07:13:15.823Z,44.01
2017-11-10T07:14:25.453Z,44.1
2017-11-10T07:15:34.770Z,43.72
2017-11-10T07:16:44.072Z,44.2
2017-11-10T07:17:53.677Z,44.29
2017-11-10T07:19:02.665Z,44.39
2017-11-10T07:20:11.989Z,44.1
2017-11-10T07:21:20.955Z,44.1
2017-11-10T07:22:30.609Z,43.91
2017-11-10T07:23:40.264Z,44.2
2017-11-10T07:24:49.894Z,44.2
2017-11-10T07:25:59.533Z,44.29
2017-11-10T07:27:08.564Z,44.2
2017-11-10T07:28:17.548Z,44.29
2017-11-10T07:29:27.188Z,44.1
2017-11-10T07:30:35.880Z,44.39
2017-11-10T07:31:45.525Z,44.59
2017-11-10T07:32:54.846Z,44.78
2017-11-10T07:34:03.502Z,44.87
2017-11-10T07:35:12.824Z,44.56
2017-11-10T07:36:22.475Z,44.56
2017-11-10T07:37:32.143Z,44.59
2017-11-10T07:38:41.492Z,44.56
2017-11-10T07:39:50.835Z,44.56
2017-11-10T07:40:59.833Z,44.76
2017-11-10T07:42:09.151Z,44.95
2017-11-10T07:43:18.525Z,45.14
2017-11-10T07:44:28.512Z,45.04
2017-11-10T07:45:37.586Z,44.85
2017-11-10T07:46:46.997Z,44.85
2017-11-10T07:47:56.348Z,45.14
2017-11-10T07:49:06.327Z,45.04
2017-11-10T07:50:15.325Z,45.24
2017-11-10T07:51:24.325Z,45.34
2017-11-10T07:52:33.673Z,45.14
2017-11-10T07:53:42.660Z,45.34
2017-11-10T07:54:51.964Z,45.14
2017-11-10T07:56:01.613Z,45.24
2017-11-10T07:57:10.923Z,45.24
2017-11-10T07:58:20.223Z,45.24
2017-11-10T07:59:28.872Z,45.03
2017-11-10T08:00:38.215Z,45.41
2017-11-10T08:01:46.869Z,45.51
2017-11-10T08:02:56.205Z,45.41
2017-11-10T08:04:06.231Z,45.99
2017-11-10T08:05:15.584Z,45.99
2017-11-10T08:06:24.896Z,45.79
2017-11-10T08:07:34.216Z,45.79
2017-11-10T08:08:43.862Z,45.79
2017-11-10T08:09:53.508Z,45.7
2017-11-10T08:11:02.492Z,45.79
2017-11-10T08:12:12.624Z,45.51
2017-11-10T08:13:21.759Z,45.51
2017-11-10T08:14:30.783Z,45.51
2017-11-10T08:15:40.962Z,45.31
2017-11-10T08:16:49.940Z,45.7
2017-11-10T08:17:59.901Z,45.41
2017-11-10T08:19:09.223Z,45.51
2017-11-10T08:20:17.888Z,45.7
2017-11-10T08:21:27.210Z,45.6
2017-11-10T08:22:36.203Z,45.51
2017-11-10T08:23:45.175Z,45.41
2017-11-10T08:24:54.498Z,45.79
2017-11-10T08:26:03.816Z,45.6
2017-11-10T08:27:13.169Z,45.99
2017-11-10T08:28:22.498Z,45.51
2017-11-10T08:29:31.805Z,45.99
2017-11-10T08:30:41.106Z,46.08
2017-11-10T08:31:51.145Z,46.18
2017-11-10T08:33:00.135Z,46.08
2017-11-10T08:34:09.431Z,45.99
2017-11-10T08:35:18.108Z,45.99
2017-11-10T08:36:27.430Z,45.99
2017-11-10T08:37:37.391Z,45.89
2017-11-10T08:38:47.049Z,45.97
2017-11-10T08:39:56.366Z,46.18
2017-11-10T08:41:05.685Z,46.08
2017-11-10T08:42:14.662Z,46.06
2017-11-10T08:43:24.646Z,45.87
2017-11-10T08:44:34.336Z,45.99
2017-11-10T08:45:43.332Z,45.87
2017-11-10T08:46:52.656Z,45.58
2017-11-10T08:48:01.993Z,45.7
2017-11-10T08:49:12.314Z,45.68
2017-11-10T08:50:21.967Z,45.58
2017-11-10T08:51:31.317Z,45.77
2017-11-10T08:52:40.644Z,45.77
2017-11-10T08:53:50.612Z,45.48
2017-11-10T08:54:59.928Z,45.87
2017-11-10T08:56:09.575Z,45.87
2017-11-10T08:57:19.228Z,45.87
2017-11-10T08:58:28.547Z,45.58
2017-11-10T08:59:37.879Z,45.87
2017-11-10T09:00:47.206Z,45.87
2017-11-10T09:01:56.876Z,45.68
2017-11-10T09:03:06.217Z,45.77
2017-11-10T09:04:15.184Z,45.97
2017-11-10T09:05:25.189Z,45.87
2017-11-10T09:06:34.856Z,45.97
2017-11-10T09:07:43.870Z,45.97
2017-11-10T09:08:53.862Z,45.58
2017-11-10T09:10:03.513Z,45.97
2017-11-10T09:11:12.830Z,45.58
2017-11-10T09:12:22.810Z,45.58
2017-11-10T09:13:32.136Z,45.58
2017-11-10T09:14:41.475Z,45.68
2017-11-10T09:15:50.822Z,45.77
2017-11-10T09:17:01.146Z,45.58
2017-11-10T09:18:10.777Z,45.87
2017-11-10T09:19:20.793Z,45.97
2017-11-10T09:20:30.140Z,45.87
2017-11-10T09:21:39.877Z,45.87
2017-11-10T09:22:48.869Z,45.97
2017-11-10T09:23:57.521Z,45.97
2017-11-10T09:25:07.521Z,46.06
2017-11-10T09:26:16.845Z,45.97
2017-11-10T09:27:26.831Z,45.87
2017-11-10T09:28:36.495Z,45.87
2017-11-10T09:29:46.149Z,45.87
2017-11-10T09:30:55.479Z,45.97
2017-11-10T09:32:04.466Z,45.77
2017-11-10T09:33:13.821Z,45.97
2017-11-10T09:34:23.479Z,45.97
2017-11-10T09:35:33.808Z,45.87
2017-11-10T09:36:43.127Z,45.87
2017-11-10T09:37:53.123Z,45.77
2017-11-10T09:39:02.833Z,45.97
2017-11-10T09:40:12.481Z,46.06
2017-11-10T09:41:21.785Z,46.06
2017-11-10T09:42:31.781Z,45.77
2017-11-10T09:43:41.106Z,46.06
2017-11-10T09:44:50.082Z,46.15
2017-11-10T09:45:59.776Z,45.97
2017-11-10T09:47:09.419Z,46.06
2017-11-10T09:48:19.385Z,45.77
2017-11-10T09:49:28.708Z,46.06
2017-11-10T09:50:38.047Z,46.06
2017-11-10T09:51:47.690Z,45.97
2017-11-10T09:52:57.009Z,45.77
2017-11-10T09:54:06.671Z,45.77
2017-11-10T09:55:15.658Z,45.77
2017-11-10T09:56:24.992Z,45.77
2017-11-10T09:57:35.003Z,45.48
2017-11-10T09:58:44.963Z,45.77
2017-11-10T09:59:53.972Z,46.06
2017-11-10T10:01:02.699Z,45.77
2017-11-10T10:02:12.006Z,45.87
2017-11-10T10:03:21.358Z,45.48
2017-11-10T10:04:31.361Z,45.48
2017-11-10T10:05:40.029Z,45.39
2017-11-10T10:06:49.362Z,45.58
2017-11-10T10:07:59.344Z,45.68
2017-11-10T10:09:08.984Z,45.58
2017-11-10T10:10:18.306Z,45.58
2017-11-10T10:11:27.681Z,45.58
2017-11-10T10:12:37.361Z,45.39
2017-11-10T10:13:47.010Z,45.58
2017-11-10T10:14:56.700Z,45.29
2017-11-10T10:16:06.030Z,45.68
2017-11-10T10:17:15.355Z,45.41
2017-11-10T10:18:24.681Z,45.58
2017-11-10T10:19:34.347Z,45.41
2017-11-10T10:20:43.688Z,45.7
2017-11-10T10:21:53.370Z,45.58
2017-11-10T10:23:03.371Z,45.41
2017-11-10T10:24:12.697Z,45.29
2017-11-10T10:25:22.681Z,45.48
2017-11-10T10:26:32.341Z,45.58
2017-11-10T10:27:41.742Z,45.58
2017-11-10T10:28:51.396Z,45.58
2017-11-10T10:30:01.045Z,45.58
2017-11-10T10:31:10.683Z,45.58
2017-11-10T10:32:19.681Z,45.58
2017-11-10T10:33:28.675Z,45.58
2017-11-10T10:34:37.990Z,45.58
2017-11-10T10:35:47.621Z,45.58
2017-11-10T10:36:56.945Z,45.7
2017-11-10T10:38:06.928Z,45.58
2017-11-10T10:39:16.257Z,45.58
2017-11-10T10:40:24.905Z,45.58
2017-11-10T10:41:34.881Z,45.48
2017-11-10T10:42:44.207Z,45.58
2017-11-10T10:43:53.853Z,45.58
2017-11-10T10:45:03.529Z,45.68
2017-11-10T10:46:12.854Z,45.58
2017-11-10T10:47:22.488Z,45.58
2017-11-10T10:48:31.809Z,45.58
2017-11-10T10:49:41.805Z,45.58
2017-11-10T10:50:50.793Z,45.68
2017-11-10T10:51:59.790Z,45.29
2017-11-10T10:53:09.754Z,45.58
2017-11-10T10:54:19.738Z,45.68
2017-11-10T10:55:29.393Z,45.68
2017-11-10T10:56:39.036Z,45.39
2017-11-10T10:57:48.023Z,45.29
2017-11-10T10:58:57.349Z,45.58
2017-11-10T11:00:07.690Z,45.29
2017-11-10T11:01:16.718Z,45.77
2017-11-10T11:02:26.369Z,45.68
2017-11-10T11:03:36.347Z,45.68
2017-11-10T11:04:45.985Z,45.58
2017-11-10T11:05:55.629Z,45.58
2017-11-10T11:07:05.339Z,45.58
2017-11-10T11:08:14.334Z,45.58
2017-11-10T11:09:23.334Z,45.58
2017-11-10T11:10:32.313Z,45.48
2017-11-10T11:11:41.631Z,45.58
2017-11-10T11:12:50.616Z,45.58
2017-11-10T11:13:59.926Z,45.58
2017-11-10T11:15:09.586Z,45.58
2017-11-10T11:16:19.230Z,45.39
2017-11-10T11:17:29.212Z,45.58
2017-11-10T11:18:38.185Z,45.58
2017-11-10T11:19:47.496Z,45.39
2017-11-10T11:20:56.812Z,45.48
2017-11-10T11:22:06.454Z,45.39
2017-11-10T11:23:15.783Z,45.58
2017-11-10T11:24:25.129Z,45.48
2017-11-10T11:25:34.472Z,45.48
2017-11-10T11:26:44.131Z,45.48
2017-11-10T11:27:53.820Z,45.48
2017-11-10T11:29:03.132Z,45.58
2017-11-10T11:30:12.126Z,45.68
2017-11-10T11:31:21.454Z,45.48
2017-11-10T11:32:31.101Z,45.29
2017-11-10T11:33:41.096Z,45.39
2017-11-10T11:34:50.409Z,45.58
2017-11-10T11:36:00.056Z,45.48
2017-11-10T11:37:09.717Z,45.68
2017-11-10T11:38:18.695Z,45.39
2017-11-10T11:39:28.017Z,45.48
2017-11-10T11:40:36.998Z,45.39
2017-11-10T11:41:46.313Z,45.87
2017-11-10T11:42:56.320Z,45.77
2017-11-10T11:44:06.285Z,45.68
2017-11-10T11:45:15.281Z,45.68
2017-11-10T11:46:24.958Z,45.77
2017-11-10T11:47:33.937Z,45.77
2017-11-10T11:48:43.914Z,45.68
2017-11-10T11:49:52.893Z,45.39
2017-11-10T11:51:02.857Z,45.39
2017-11-10T11:52:12.871Z,45.39
2017-11-10T11:53:22.510Z,45.39
2017-11-10T11:54:32.485Z,45.39
2017-11-10T11:55:42.169Z,45.48
2017-11-10T11:56:52.172Z,45.39
2017-11-10T11:58:01.149Z,45.68
2017-11-10T11:59:11.489Z,45.77
2017-11-10T12:00:20.811Z,45.77
2017-11-10T12:01:30.793Z,45.77
2017-11-10T12:02:40.778Z,45.77
2017-11-10T12:03:50.097Z,45.68
2017-11-10T12:04:59.416Z,45.39
2017-11-10T12:06:08.726Z,45.87
2017-11-10T12:07:18.090Z,45.87
2017-11-10T12:08:27.728Z,45.58
2017-11-10T12:09:37.028Z,45.58
2017-11-10T12:10:46.025Z,45.77
2017-11-10T12:11:55.029Z,45.39
2017-11-10T12:13:03.745Z,45.39
2017-11-10T12:14:13.082Z,45.48
2017-11-10T12:15:22.745Z,45.87
2017-11-10T12:16:32.424Z,45.48
2017-11-10T12:17:41.760Z,45.48
2017-11-10T12:18:51.446Z,45.68
2017-11-10T12:20:00.446Z,45.48
2017-11-10T12:21:10.102Z,45.58
2017-11-10T12:22:19.432Z,45.58
2017-11-10T12:23:28.735Z,45.39
2017-11-10T12:24:38.045Z,45.39
2017-11-10T12:25:47.717Z,45.58
2017-11-10T12:26:56.717Z,45.68
2017-11-10T12:28:06.037Z,45.48
2017-11-10T12:29:15.368Z,45.68
2017-11-10T12:30:25.038Z,45.68
2017-11-10T12:31:35.014Z,45.58
2017-11-10T12:32:45.025Z,45.39
2017-11-10T12:33:54.715Z,45.29
2017-11-10T12:35:04.361Z,45.29
2017-11-10T12:36:13.682Z,45.48
2017-11-10T12:37:23.663Z,45.48
2017-11-10T12:38:32.990Z,45.77
2017-11-10T12:39:42.640Z,45.97
2017-11-10T12:40:51.627Z,45.97
2017-11-10T12:42:01.617Z,45.87
2017-11-10T12:43:10.602Z,46.06
2017-11-10T12:44:19.930Z,46.15
2017-11-10T12:45:28.921Z,45.77
2017-11-10T12:46:38.244Z,45.48
2017-11-10T12:47:47.895Z,45.97
2017-11-10T12:48:57.225Z,45.68
2017-11-10T12:50:06.547Z,45.58
2017-11-10T12:51:16.200Z,46.06
2017-11-10T12:52:25.849Z,45.77
2017-11-10T12:53:35.534Z,45.77
2017-11-10T12:54:44.871Z,45.87
2017-11-10T12:55:54.179Z,45.97
2017-11-10T12:57:03.488Z,45.97
2017-11-10T12:58:12.816Z,45.97
2017-11-10T12:59:22.460Z,46.15
2017-11-10T13:00:31.430Z,45.87
2017-11-10T13:01:40.413Z,45.87
2017-11-10T13:02:50.071Z,45.87
2017-11-10T13:04:00.069Z,45.97
2017-11-10T13:05:09.397Z,46.06
2017-11-10T13:06:18.736Z,45.87
2017-11-10T13:07:27.715Z,45.68
2017-11-10T13:08:36.711Z,45.87
2017-11-10T13:09:45.688Z,45.39
2017-11-10T13:10:54.665Z,45.48
2017-11-10T13:12:03.986Z,45.58
2017-11-10T13:13:13.974Z,45.68
2017-11-10T13:14:23.290Z,45.48
2017-11-10T13:15:33.274Z,45.68
2017-11-10T13:16:43.260Z,45.58
2017-11-10T13:17:52.582Z,45.58
2017-11-10T13:19:02.586Z,45.58
2017-11-10T13:20:11.563Z,45.39
2017-11-10T13:21:20.580Z,45.58
2017-11-10T13:22:29.893Z,45.39
2017-11-10T13:23:39.551Z,45.68
2017-11-10T13:24:48.877Z,45.39
2017-11-10T13:25:58.531Z,45.39
2017-11-10T13:27:08.885Z,45.39
2017-11-10T13:28:18.231Z,45.39
2017-11-10T13:29:27.229Z,45.68
2017-11-10T13:30:36.558Z,45.58
2017-11-10T13:31:46.311Z,45.58
2017-11-10T13:32:55.697Z,45.58
2017-11-10T13:34:05.021Z,45.58
2017-11-10T13:35:15.022Z,45.58
2017-11-10T13:36:24.346Z,45.58
2017-11-10T13:37:33.677Z,45.29
2017-11-10T13:38:42.671Z,45.58
2017-11-10T13:39:52.667Z,45.39
2017-11-10T13:41:02.649Z,45.68
2017-11-10T13:42:11.961Z,45.58
2017-11-10T13:43:21.289Z,45.58
2017-11-10T13:44:30.930Z,45.48
2017-11-10T13:45:40.241Z,45.48
2017-11-10T13:46:49.889Z,45.58
2017-11-10T13:47:59.545Z,45.48
2017-11-10T13:49:08.521Z,45.58
2017-11-10T13:50:17.847Z,45.58
2017-11-10T13:51:27.501Z,45.68
2017-11-10T13:52:37.471Z,45.58
2017-11-10T13:53:46.117Z,45.39
2017-11-10T13:54:55.479Z,45.29
2017-11-10T13:56:05.148Z,45.29
2017-11-10T13:57:13.819Z,45.39
2017-11-10T13:58:23.801Z,45.68
2017-11-10T13:59:33.134Z,45.39
2017-11-10T14:00:42.115Z,45.48
2017-11-10T14:01:52.116Z,45.39
2017-11-10T14:03:01.153Z,45.48
2017-11-10T14:04:10.817Z,45.77
2017-11-10T14:05:19.818Z,45.77
2017-11-10T14:06:29.857Z,45.48
2017-11-10T14:07:39.518Z,45.87
2017-11-10T14:08:48.514Z,45.48
2017-11-10T14:09:57.510Z,45.77
2017-11-10T14:11:06.501Z,45.77
2017-11-10T14:12:15.178Z,46.06
2017-11-10T14:13:25.149Z,45.97
2017-11-10T14:14:34.151Z,45.48
2017-11-10T14:15:43.856Z,45.68
2017-11-10T14:16:53.542Z,45.39
2017-11-10T14:18:03.197Z,45.77
2017-11-10T14:19:12.531Z,45.48
2017-11-10T14:20:22.171Z,45.48
2017-11-10T14:21:32.196Z,45.48
2017-11-10T14:22:41.200Z,45.48
2017-11-10T14:23:50.556Z,45.77
2017-11-10T14:25:00.229Z,45.87
2017-11-10T14:26:09.545Z,45.68
2017-11-10T14:27:19.854Z,45.87
2017-11-10T14:28:29.188Z,45.77
2017-11-10T14:29:38.503Z,45.77
2017-11-10T14:30:47.845Z,45.48
2017-11-10T14:31:56.866Z,45.48
2017-11-10T14:33:06.223Z,45.48
2017-11-10T14:34:15.245Z,45.97
2017-11-10T14:35:24.562Z,45.48
2017-11-10T14:36:34.210Z,45.87
2017-11-10T14:37:43.864Z,45.77
2017-11-10T14:38:53.531Z,46.06
2017-11-10T14:40:03.195Z,45.87
2017-11-10T14:41:12.848Z,45.77
2017-11-10T14:42:22.189Z,45.77
2017-11-10T14:43:32.180Z,45.87
2017-11-10T14:44:41.845Z,45.77
2017-11-10T14:45:50.843Z,45.77
2017-11-10T14:47:00.578Z,45.87
2017-11-10T14:48:10.572Z,45.87
2017-11-10T14:49:19.895Z,45.58
2017-11-10T14:50:29.247Z,45.87
2017-11-10T14:51:39.250Z,45.87
2017-11-10T14:52:49.252Z,45.87
2017-11-10T14:53:58.911Z,45.97
2017-11-10T14:55:08.232Z,45.97
2017-11-10T14:56:17.604Z,46.15